createdAt,value
2018-06-01T00:00:28.348Z,1009.71
2018-06-01T00:01:28.543Z,1009.72
2018-06-01T00:02:28.342Z,1009.70
2018-06-01T00:03:28.357Z,1009.74
2018-06-01T00:04:28.352Z,1009.74
2018-06-01T00:05:28.367Z,1009.77
2018-06-01T00:06:28.572Z,1009.82
2018-06-01T00:07:28.354Z,1009.82
2018-06-01T00:08:28.561Z,1009.85
2018-06-01T00:09:28.383Z,1009.87
2018-06-01T00:10:28.374Z,1009.86
2018-06-01T00:11:28.366Z,1009.87
2018-06-01T00:12:28.598Z,1009.87
2018-06-01T00:13:28.388Z,1009.82
2018-06-01T00:14:28.374Z,1009.83
2018-06-01T00:15:28.389Z,1009.85
2018-06-01T00:16:28.601Z,1009.82
2018-06-01T00:17:28.383Z,1009.82
2018-06-01T00:18:28.387Z,1009.81
2018-06-01T00:19:28.388Z,1009.80
2018-06-01T00:20:28.595Z,1009.81
2018-06-01T00:21:28.395Z,1009.81
2018-06-01T00:22:28.414Z,1009.82
2018-06-01T00:23:28.412Z,1009.79
2018-06-01T00:24:28.609Z,1009.84
2018-06-01T00:25:28.638Z,1009.87
2018-06-01T00:26:28.433Z,1009.86
2018-06-01T00:27:28.643Z,1009.92
2018-06-01T00:28:28.415Z,1009.87
2018-06-01T00:29:28.633Z,1009.89
2018-06-01T00:30:28.419Z,1009.88
2018-06-01T00:31:28.436Z,1009.88
2018-06-01T00:32:28.455Z,1009.88
2018-06-01T00:33:28.429Z,1009.87
2018-06-01T00:34:28.432Z,1009.85
2018-06-01T00:35:28.653Z,1009.82
2018-06-01T00:36:28.655Z,1009.78
2018-06-01T00:37:28.655Z,1009.76
2018-06-01T00:38:28.661Z,1009.78
2018-06-01T00:39:28.470Z,1009.77
2018-06-01T00:40:28.460Z,1009.78
2018-06-01T00:41:28.450Z,1009.84
2018-06-01T00:42:28.466Z,1009.82
2018-06-01T00:43:28.461Z,1009.77
2018-06-01T00:44:28.675Z,1009.78
2018-06-01T00:45:28.491Z,1009.73
2018-06-01T00:46:28.489Z,1009.73
2018-06-01T00:47:28.485Z,1009.79
2018-06-01T00:48:28.470Z,1009.74
2018-06-01T00:49:28.497Z,1009.73
2018-06-01T00:50:28.495Z,1009.67
2018-06-01T00:51:28.682Z,1009.68
2018-06-01T00:52:28.703Z,1009.68
2018-06-01T00:53:28.488Z,1009.67
2018-06-01T00:54:28.488Z,1009.67
2018-06-01T00:55:28.494Z,1009.74
2018-06-01T00:56:28.507Z,1009.73
2018-06-01T00:57:28.527Z,1009.73
2018-06-01T00:58:28.729Z,1009.72
2018-06-01T00:59:28.531Z,1009.74
2018-06-01T01:00:28.506Z,1009.71
2018-06-01T01:01:28.711Z,1009.70
2018-06-01T01:02:28.543Z,1009.68
2018-06-01T01:03:28.524Z,1009.66
2018-06-01T01:04:28.518Z,1009.66
2018-06-01T01:05:28.737Z,1009.68
2018-06-01T01:06:28.533Z,1009.69
2018-06-01T01:07:28.535Z,1009.67
2018-06-01T01:08:28.528Z,1009.63
2018-06-01T01:09:28.747Z,1009.63
2018-06-01T01:10:28.536Z,1009.60
2018-06-01T01:11:28.565Z,1009.59
2018-06-01T01:12:28.540Z,1009.63
2018-06-01T01:13:28.557Z,1009.60
2018-06-01T01:14:28.547Z,1009.60
2018-06-01T01:15:28.555Z,1009.65
2018-06-01T01:16:28.565Z,1009.65
2018-06-01T01:17:28.566Z,1009.64
2018-06-01T01:18:28.775Z,1009.62
2018-06-01T01:19:28.574Z,1009.61
2018-06-01T01:20:28.577Z,1009.63
2018-06-01T01:21:28.583Z,1009.62
2018-06-01T01:22:28.783Z,1009.61
2018-06-01T01:23:28.776Z,1009.62
2018-06-01T01:24:28.599Z,1009.69
2018-06-01T01:25:28.608Z,1009.67
2018-06-01T01:26:28.600Z,1009.69
2018-06-01T01:27:28.587Z,1009.72
2018-06-01T01:28:28.603Z,1009.71
2018-06-01T01:29:28.601Z,1009.71
2018-06-01T01:30:28.622Z,1009.73
2018-06-01T01:31:28.599Z,1009.76
2018-06-01T01:32:28.827Z,1009.81
2018-06-01T01:33:28.620Z,1009.81
2018-06-01T01:34:28.611Z,1009.86
2018-06-01T01:35:28.611Z,1009.87
2018-06-01T01:36:28.819Z,1009.90
2018-06-01T01:37:28.617Z,1009.95
2018-06-01T01:38:28.621Z,1009.94
2018-06-01T01:39:28.625Z,1009.95
2018-06-01T01:40:28.629Z,1009.93
2018-06-01T01:41:28.637Z,1009.91
2018-06-01T01:42:28.634Z,1009.91
2018-06-01T01:43:28.635Z,1009.92
2018-06-01T01:44:28.638Z,1009.94
2018-06-01T01:45:28.646Z,1009.95
2018-06-01T01:46:28.659Z,1009.96
2018-06-01T01:47:28.648Z,1010.00
2018-06-01T01:48:28.665Z,1009.98
2018-06-01T01:49:28.857Z,1009.98
2018-06-01T01:50:28.667Z,1010.01
2018-06-01T01:51:28.665Z,1010.04
2018-06-01T01:52:28.666Z,1010.01
2018-06-01T01:53:28.679Z,1010.03
2018-06-01T01:54:28.884Z,1010.05
2018-06-01T01:55:28.675Z,1010.04
2018-06-01T01:56:28.694Z,1010.02
2018-06-01T01:57:28.697Z,1009.99
2018-06-01T01:58:28.885Z,1009.99
2018-06-01T01:59:28.688Z,1010.00
2018-06-01T02:00:28.708Z,1009.97
2018-06-01T02:01:28.703Z,1009.96
2018-06-01T02:02:28.710Z,1009.94
2018-06-01T02:03:28.701Z,1009.93
2018-06-01T02:04:28.727Z,1009.91
2018-06-01T02:05:28.712Z,1009.90
2018-06-01T02:06:28.712Z,1009.88
2018-06-01T02:07:28.711Z,1009.85
2018-06-01T02:08:28.729Z,1009.83
2018-06-01T02:09:28.733Z,1009.81
2018-06-01T02:10:28.729Z,1009.79
2018-06-01T02:11:28.941Z,1009.74
2018-06-01T02:12:28.752Z,1009.71
2018-06-01T02:13:28.745Z,1009.71
2018-06-01T02:14:28.948Z,1009.64
2018-06-01T02:15:28.952Z,1009.65
2018-06-01T02:16:28.753Z,1009.57
2018-06-01T02:17:28.759Z,1009.57
2018-06-01T02:18:28.745Z,1009.56
2018-06-01T02:19:28.961Z,1009.57
2018-06-01T02:20:28.957Z,1009.55
2018-06-01T02:21:28.968Z,1009.57
2018-06-01T02:22:28.962Z,1009.52
2018-06-01T02:23:28.973Z,1009.49
2018-06-01T02:24:28.776Z,1009.48
2018-06-01T02:25:28.765Z,1009.49
2018-06-01T02:26:28.780Z,1009.50
2018-06-01T02:27:28.974Z,1009.49
2018-06-01T02:28:28.778Z,1009.46
2018-06-01T02:29:28.795Z,1009.47
2018-06-01T02:30:28.780Z,1009.49
2018-06-01T02:31:28.797Z,1009.52
2018-06-01T02:32:28.803Z,1009.53
2018-06-01T02:33:28.803Z,1009.57
2018-06-01T02:34:28.791Z,1009.53
2018-06-01T02:35:28.798Z,1009.52
2018-06-01T02:36:28.813Z,1009.51
2018-06-01T02:37:29.007Z,1009.51
2018-06-01T02:38:28.828Z,1009.53
2018-06-01T02:39:28.809Z,1009.54
2018-06-01T02:40:28.812Z,1009.52
2018-06-01T02:41:28.829Z,1009.48
2018-06-01T02:42:28.816Z,1009.47
2018-06-01T02:43:29.023Z,1009.45
2018-06-01T02:44:28.835Z,1009.44
2018-06-01T02:45:28.825Z,1009.47
2018-06-01T02:46:28.830Z,1009.48
2018-06-01T02:47:28.848Z,1009.49
2018-06-01T02:48:28.855Z,1009.47
2018-06-01T02:49:28.837Z,1009.50
2018-06-01T02:50:28.855Z,1009.46
2018-06-01T02:51:28.872Z,1009.43
2018-06-01T02:52:28.860Z,1009.43
2018-06-01T02:53:28.852Z,1009.40
2018-06-01T02:54:28.870Z,1009.43
2018-06-01T02:55:29.056Z,1009.40
2018-06-01T02:56:29.071Z,1009.35
2018-06-01T02:57:28.861Z,1009.35
2018-06-01T02:58:29.065Z,1009.29
2018-06-01T02:59:28.887Z,1009.26
2018-06-01T03:00:29.092Z,1009.23
2018-06-01T03:01:29.076Z,1009.20
2018-06-01T03:02:28.892Z,1009.12
2018-06-01T03:03:28.894Z,1009.13
2018-06-01T03:04:28.895Z,1009.06
2018-06-01T03:05:28.896Z,1009.04
2018-06-01T03:06:28.915Z,1009.02
2018-06-01T03:07:28.890Z,1009.04
2018-06-01T03:08:28.921Z,1009.07
2018-06-01T03:09:28.911Z,1009.07
2018-06-01T03:10:28.917Z,1009.08
2018-06-01T03:11:28.929Z,1009.14
2018-06-01T03:12:28.916Z,1009.20
2018-06-01T03:13:28.922Z,1009.27
2018-06-01T03:14:28.909Z,1009.36
2018-06-01T03:15:29.121Z,1009.40
2018-06-01T03:16:28.928Z,1009.45
2018-06-01T03:17:28.927Z,1009.48
2018-06-01T03:18:29.145Z,1009.49
2018-06-01T03:19:28.943Z,1009.46
2018-06-01T03:20:28.936Z,1009.47
2018-06-01T03:21:28.936Z,1009.50
2018-06-01T03:22:28.945Z,1009.53
2018-06-01T03:23:28.932Z,1009.59
2018-06-01T03:24:28.957Z,1009.64
2018-06-01T03:25:28.937Z,1009.66
2018-06-01T03:26:29.172Z,1009.73
2018-06-01T03:27:28.940Z,1009.77
2018-06-01T03:28:28.944Z,1009.82
2018-06-01T03:29:28.948Z,1009.87
2018-06-01T03:30:28.951Z,1009.85
2018-06-01T03:31:28.953Z,1009.85
2018-06-01T03:32:29.173Z,1009.83
2018-06-01T03:33:28.961Z,1009.77
2018-06-01T03:34:28.990Z,1009.73
2018-06-01T03:35:28.983Z,1009.67
2018-06-01T03:36:28.977Z,1009.61
2018-06-01T03:37:28.981Z,1009.55
2018-06-01T03:38:29.187Z,1009.53
2018-06-01T03:39:29.179Z,1009.52
2018-06-01T03:40:28.986Z,1009.50
2018-06-01T03:41:28.979Z,1009.48
2018-06-01T03:42:28.981Z,1009.44
2018-06-01T03:43:29.006Z,1009.44
2018-06-01T03:44:28.987Z,1009.39
2018-06-01T03:45:29.008Z,1009.38
2018-06-01T03:46:28.994Z,1009.40
2018-06-01T03:47:28.994Z,1009.39
2018-06-01T03:48:29.002Z,1009.39
2018-06-01T03:49:29.012Z,1009.35
2018-06-01T03:50:29.007Z,1009.40
2018-06-01T03:51:29.010Z,1009.41
2018-06-01T03:52:29.088Z,1009.42
2018-06-01T03:53:29.017Z,1009.44
2018-06-01T03:54:29.016Z,1009.45
2018-06-01T03:55:29.019Z,1009.50
2018-06-01T03:56:29.022Z,1009.46
2018-06-01T03:57:29.237Z,1009.53
2018-06-01T03:58:29.038Z,1009.55
2018-06-01T03:59:29.230Z,1009.59
2018-06-01T04:00:29.233Z,1009.62
2018-06-01T04:01:29.044Z,1009.66
2018-06-01T04:02:29.051Z,1009.69
2018-06-01T04:04:29.244Z,1009.71
2018-06-01T04:05:29.248Z,1009.75
2018-06-01T04:06:29.249Z,1009.75
2018-06-01T04:07:29.251Z,1009.78
2018-06-01T04:08:29.065Z,1009.79
2018-06-01T04:09:29.058Z,1009.81
2018-06-01T04:10:29.063Z,1009.83
2018-06-01T04:11:29.274Z,1009.90
2018-06-01T04:12:29.275Z,1009.96
2018-06-01T04:13:29.078Z,1009.97
2018-06-01T04:14:29.069Z,1009.99
2018-06-01T04:15:29.081Z,1010.09
2018-06-01T04:16:29.084Z,1010.16
2018-06-01T04:17:29.095Z,1010.23
2018-06-01T04:18:29.087Z,1010.36
2018-06-01T04:19:29.286Z,1010.46
2018-06-01T04:20:29.089Z,1010.54
2018-06-01T04:21:29.306Z,1010.64
2018-06-01T04:22:29.295Z,1010.74
2018-06-01T04:23:29.096Z,1010.80
2018-06-01T04:24:29.096Z,1010.86
2018-06-01T04:25:29.111Z,1010.89
2018-06-01T04:26:29.130Z,1010.93
2018-06-01T04:27:29.329Z,1010.89
2018-06-01T04:28:29.124Z,1010.91
2018-06-01T04:29:29.124Z,1010.86
2018-06-01T04:30:29.319Z,1010.84
2018-06-01T04:31:29.119Z,1010.86
2018-06-01T04:32:29.138Z,1010.82
2018-06-01T04:33:29.142Z,1010.83
2018-06-01T04:34:29.139Z,1010.89
2018-06-01T04:35:29.131Z,1010.85
2018-06-01T04:36:29.351Z,1010.87
2018-06-01T04:37:29.154Z,1010.90
2018-06-01T04:38:29.142Z,1010.90
2018-06-01T04:39:29.346Z,1010.88
2018-06-01T04:40:29.148Z,1010.97
2018-06-01T04:41:29.179Z,1011.00
2018-06-01T04:42:29.358Z,1011.03
2018-06-01T04:43:29.174Z,1011.04
2018-06-01T04:44:29.392Z,1011.12
2018-06-01T04:45:29.178Z,1011.17
2018-06-01T04:46:29.179Z,1011.24
2018-06-01T04:47:29.184Z,1011.33
2018-06-01T04:48:29.176Z,1011.35
2018-06-01T04:49:29.191Z,1011.37
2018-06-01T04:50:29.395Z,1011.40
2018-06-01T04:51:29.187Z,1011.44
2018-06-01T04:52:29.191Z,1011.51
2018-06-01T04:53:29.192Z,1011.47
2018-06-01T04:54:29.222Z,1011.49
2018-06-01T04:55:29.416Z,1011.51
2018-06-01T04:56:29.229Z,1011.55
2018-06-01T04:57:29.219Z,1011.56
2018-06-01T04:58:29.210Z,1011.56
2018-06-01T04:59:29.217Z,1011.42
2018-06-01T05:00:29.227Z,1011.38
2018-06-01T05:01:29.233Z,1011.38
2018-06-01T05:02:29.438Z,1011.35
2018-06-01T05:03:29.236Z,1011.36
2018-06-01T05:04:29.441Z,1011.23
2018-06-01T05:07:12.980Z,1010.86
2018-06-01T05:08:12.986Z,1010.75
2018-06-01T05:09:13.002Z,1010.66
2018-06-01T05:10:12.984Z,1010.62
2018-06-01T05:11:12.981Z,1010.59
2018-06-01T05:12:12.994Z,1010.57
2018-06-01T05:13:13.202Z,1010.59
2018-06-01T05:14:12.999Z,1010.55
2018-06-01T05:15:13.208Z,1010.56
2018-06-01T05:16:13.007Z,1010.59
2018-06-01T05:17:13.009Z,1010.60
2018-06-01T05:18:13.005Z,1010.60
2018-06-01T05:19:13.216Z,1010.62
2018-06-01T05:20:13.239Z,1010.66
2018-06-01T05:21:13.214Z,1010.64
2018-06-01T05:22:13.034Z,1010.62
2018-06-01T05:23:13.013Z,1010.66
2018-06-01T05:24:13.247Z,1010.62
2018-06-01T05:25:13.221Z,1010.61
2018-06-01T05:26:13.037Z,1010.64
2018-06-01T05:27:13.042Z,1010.63
2018-06-01T05:28:13.241Z,1010.65
2018-06-01T05:29:13.044Z,1010.60
2018-06-01T05:30:13.035Z,1010.57
2018-06-01T05:31:13.039Z,1010.59
2018-06-01T05:32:13.068Z,1010.59
2018-06-01T05:33:13.041Z,1010.58
2018-06-01T05:34:13.045Z,1010.56
2018-06-01T05:35:13.049Z,1010.51
2018-06-01T05:36:13.074Z,1010.52
2018-06-01T05:37:13.052Z,1010.58
2018-06-01T05:38:13.063Z,1010.49
2018-06-01T05:39:13.055Z,1010.49
2018-06-01T05:40:13.062Z,1010.49
2018-06-01T05:41:13.078Z,1010.44
2018-06-01T05:42:13.067Z,1010.46
2018-06-01T05:43:13.076Z,1010.38
2018-06-01T05:44:13.069Z,1010.33
2018-06-01T05:45:13.072Z,1010.30
2018-06-01T05:46:13.089Z,1010.26
2018-06-01T05:47:13.077Z,1010.22
2018-06-01T05:48:13.285Z,1010.19
2018-06-01T05:49:13.094Z,1010.19
2018-06-01T05:50:13.100Z,1010.20
2018-06-01T05:51:13.303Z,1010.21
2018-06-01T05:52:13.291Z,1010.19
2018-06-01T05:53:13.309Z,1010.18
2018-06-01T05:54:13.110Z,1010.18
2018-06-01T05:55:13.097Z,1010.15
2018-06-01T05:56:13.122Z,1010.15
2018-06-01T05:57:13.102Z,1010.16
2018-06-01T05:58:13.107Z,1010.19
2018-06-01T05:59:13.310Z,1010.17
2018-06-01T06:00:13.109Z,1010.20
2018-06-01T06:01:13.128Z,1010.19
2018-06-01T06:02:13.320Z,1010.16
2018-06-01T06:03:13.114Z,1010.17
2018-06-01T06:04:13.116Z,1010.15
2018-06-01T06:05:13.134Z,1010.14
2018-06-01T06:06:13.133Z,1010.11
2018-06-01T06:07:13.125Z,1010.11
2018-06-01T06:08:13.142Z,1010.10
2018-06-01T06:09:13.133Z,1010.11
2018-06-01T06:10:13.140Z,1010.17
2018-06-01T06:11:13.137Z,1010.23
2018-06-01T06:12:13.359Z,1010.29
2018-06-01T06:13:13.174Z,1010.29
2018-06-01T06:14:13.153Z,1010.28
2018-06-01T06:15:13.346Z,1010.36
2018-06-01T06:16:13.158Z,1010.31
2018-06-01T06:17:13.161Z,1010.34
2018-06-01T06:18:13.152Z,1010.35
2018-06-01T06:19:13.156Z,1010.35
2018-06-01T06:20:13.183Z,1010.38
2018-06-01T06:21:13.173Z,1010.40
2018-06-01T06:22:13.174Z,1010.41
2018-06-01T06:23:13.381Z,1010.43
2018-06-01T06:24:13.369Z,1010.47
2018-06-01T06:25:13.180Z,1010.53
2018-06-01T06:26:13.186Z,1010.50
2018-06-01T06:27:13.174Z,1010.54
2018-06-01T06:28:13.179Z,1010.50
2018-06-01T06:29:13.393Z,1010.48
2018-06-01T06:30:13.182Z,1010.49
2018-06-01T06:31:13.204Z,1010.52
2018-06-01T06:32:13.387Z,1010.53
2018-06-01T06:33:13.189Z,1010.55
2018-06-01T06:34:13.198Z,1010.55
2018-06-01T06:35:13.196Z,1010.55
2018-06-01T06:36:13.210Z,1010.50
2018-06-01T06:37:13.200Z,1010.48
2018-06-01T06:38:13.199Z,1010.45
2018-06-01T06:39:13.215Z,1010.38
2018-06-01T06:40:13.205Z,1010.34
2018-06-01T06:41:13.208Z,1010.24
2018-06-01T06:42:13.209Z,1010.20
2018-06-01T06:43:13.281Z,1010.19
2018-06-01T06:44:13.232Z,1010.09
2018-06-01T06:45:13.216Z,1010.08
2018-06-01T06:46:13.219Z,1010.00
2018-06-01T06:47:13.224Z,1009.96
2018-06-01T06:48:13.444Z,1009.97
2018-06-01T06:49:13.232Z,1009.95
2018-06-01T06:50:13.228Z,1009.91
2018-06-01T06:51:13.234Z,1009.91
2018-06-01T06:52:13.241Z,1009.84
2018-06-01T06:53:13.246Z,1009.83
2018-06-01T06:54:13.250Z,1009.75
2018-06-01T06:55:13.304Z,1009.73
2018-06-01T06:56:13.444Z,1009.70
2018-06-01T06:57:13.464Z,1009.67
2018-06-01T06:58:13.260Z,1009.65
2018-06-01T06:59:13.462Z,1009.63
2018-06-01T07:00:13.275Z,1009.59
2018-06-01T07:01:13.468Z,1009.56
2018-06-01T07:02:13.274Z,1009.56
2018-06-01T07:03:13.459Z,1009.56
2018-06-01T07:04:13.283Z,1009.55
2018-06-01T07:05:13.261Z,1009.57
2018-06-01T07:06:13.274Z,1009.60
2018-06-01T07:07:13.264Z,1009.58
2018-06-01T07:08:13.279Z,1009.60
2018-06-01T07:09:13.277Z,1009.64
2018-06-01T07:10:13.473Z,1009.65
2018-06-01T07:11:13.486Z,1009.65
2018-06-01T07:12:13.297Z,1009.64
2018-06-01T07:13:13.278Z,1009.61
2018-06-01T07:14:13.291Z,1009.66
2018-06-01T07:15:13.295Z,1009.69
2018-06-01T07:16:13.292Z,1009.73
2018-06-01T07:17:13.285Z,1009.72
2018-06-01T07:18:13.313Z,1009.75
2018-06-01T07:19:13.289Z,1009.77
2018-06-01T07:20:13.303Z,1009.77
2018-06-01T07:21:13.317Z,1009.77
2018-06-01T07:22:13.499Z,1009.79
2018-06-01T07:23:13.302Z,1009.82
2018-06-01T07:24:13.303Z,1009.84
2018-06-01T07:25:13.320Z,1009.81
2018-06-01T07:26:13.509Z,1009.78
2018-06-01T07:27:13.307Z,1009.83
2018-06-01T07:28:13.513Z,1009.81
2018-06-01T07:29:13.324Z,1009.81
2018-06-01T07:30:13.314Z,1009.81
2018-06-01T07:31:13.317Z,1009.82
2018-06-01T07:32:13.320Z,1009.83
2018-06-01T07:33:13.374Z,1009.85
2018-06-01T07:34:13.324Z,1009.82
2018-06-01T07:35:13.325Z,1009.82
2018-06-01T07:36:13.331Z,1009.83
2018-06-01T07:37:13.337Z,1009.83
2018-06-01T07:38:13.334Z,1009.84
2018-06-01T07:39:13.541Z,1009.82
2018-06-01T07:40:13.351Z,1009.83
2018-06-01T07:41:13.353Z,1009.86
2018-06-01T07:42:13.343Z,1009.86
2018-06-01T07:43:13.350Z,1009.86
2018-06-01T07:44:13.350Z,1009.88
2018-06-01T07:45:13.350Z,1009.89
2018-06-01T07:46:13.363Z,1009.92
2018-06-01T07:47:13.584Z,1009.95
2018-06-01T07:48:13.359Z,1009.99
2018-06-01T07:49:13.362Z,1010.01
2018-06-01T07:50:13.366Z,1010.10
2018-06-01T07:51:13.385Z,1010.16
2018-06-01T07:52:13.370Z,1010.22
2018-06-01T07:53:13.595Z,1010.29
2018-06-01T07:54:13.384Z,1010.40
2018-06-01T07:55:13.402Z,1010.50
2018-06-01T07:56:13.381Z,1010.54
2018-06-01T07:57:13.596Z,1010.60
2018-06-01T07:58:13.389Z,1010.64
2018-06-01T07:59:13.387Z,1010.67
2018-06-01T08:00:13.391Z,1010.65
2018-06-01T08:01:13.597Z,1010.70
2018-06-01T08:02:13.465Z,1010.82
2018-06-01T08:03:13.414Z,1010.83
2018-06-01T08:04:13.606Z,1010.94
2018-06-01T08:05:13.415Z,1011.01
2018-06-01T08:06:13.420Z,1011.06
2018-06-01T08:07:13.412Z,1011.10
2018-06-01T08:08:13.619Z,1011.09
2018-06-01T08:09:13.435Z,1011.11
2018-06-01T08:10:13.420Z,1011.12
2018-06-01T08:11:13.446Z,1011.12
2018-06-01T08:12:13.427Z,1011.06
2018-06-01T08:13:13.432Z,1011.14
2018-06-01T08:14:13.446Z,1011.17
2018-06-01T08:15:13.455Z,1011.11
2018-06-01T08:16:13.439Z,1011.20
2018-06-01T08:17:13.447Z,1011.21
2018-06-01T08:18:13.457Z,1011.26
2018-06-01T08:19:13.445Z,1011.28
2018-06-01T08:20:13.458Z,1011.28
2018-06-01T08:21:13.468Z,1011.29
2018-06-01T08:22:13.457Z,1011.30
2018-06-01T08:23:13.472Z,1011.33
2018-06-01T08:24:13.465Z,1011.28
2018-06-01T08:25:13.485Z,1011.28
2018-06-01T08:26:13.468Z,1011.27
2018-06-01T08:27:13.472Z,1011.23
2018-06-01T08:28:13.478Z,1011.23
2018-06-01T08:29:13.483Z,1011.20
2018-06-01T08:30:13.492Z,1011.17
2018-06-01T08:31:13.488Z,1011.11
2018-06-01T08:32:13.715Z,1011.09
2018-06-01T08:33:13.525Z,1011.10
2018-06-01T08:34:13.706Z,1011.09
2018-06-01T08:35:13.509Z,1011.09
2018-06-01T08:36:13.504Z,1011.11
2018-06-01T08:37:13.507Z,1011.11
2018-06-01T08:38:13.507Z,1011.12
2018-06-01T08:39:13.513Z,1011.17
2018-06-01T08:40:13.542Z,1011.16
2018-06-01T08:41:13.516Z,1011.21
2018-06-01T08:42:13.534Z,1011.21
2018-06-01T08:43:13.534Z,1011.24
2018-06-01T08:44:13.526Z,1011.25
2018-06-01T08:45:13.539Z,1011.25
2018-06-01T08:46:13.745Z,1011.29
2018-06-01T08:47:13.545Z,1011.29
2018-06-01T08:48:13.549Z,1011.27
2018-06-01T08:49:13.556Z,1011.26
2018-06-01T08:50:13.550Z,1011.28
2018-06-01T08:51:13.766Z,1011.31
2018-06-01T08:52:13.552Z,1011.32
2018-06-01T08:53:13.769Z,1011.32
2018-06-01T08:54:13.570Z,1011.27
2018-06-01T08:55:13.577Z,1011.23
2018-06-01T08:56:13.570Z,1011.25
2018-06-01T08:57:13.584Z,1011.25
2018-06-01T08:58:13.786Z,1011.24
2018-06-01T08:59:13.828Z,1011.21
2018-06-01T09:00:13.584Z,1011.24
2018-06-01T09:01:13.592Z,1011.23
2018-06-01T09:02:13.601Z,1011.25
2018-06-01T09:03:13.822Z,1011.21
2018-06-01T09:04:13.606Z,1011.20
2018-06-01T09:05:13.606Z,1011.20
2018-06-01T09:06:13.607Z,1011.26
2018-06-01T09:07:13.605Z,1011.31
2018-06-01T09:08:13.607Z,1011.29
2018-06-01T09:09:13.620Z,1011.23
2018-06-01T09:10:13.730Z,1011.26
2018-06-01T09:11:13.616Z,1011.24
2018-06-01T09:12:13.634Z,1011.25
2018-06-01T09:13:13.823Z,1011.24
2018-06-01T09:14:13.624Z,1011.22
2018-06-01T09:15:13.645Z,1011.20
2018-06-01T09:16:13.644Z,1011.21
2018-06-01T09:17:13.638Z,1011.22
2018-06-01T09:18:13.643Z,1011.32
2018-06-01T09:19:13.638Z,1011.33
2018-06-01T09:20:13.645Z,1011.36
2018-06-01T09:21:13.862Z,1011.37
2018-06-01T09:22:13.693Z,1011.40
2018-06-01T09:23:13.653Z,1011.43
2018-06-01T09:24:13.663Z,1011.42
2018-06-01T09:25:13.665Z,1011.43
2018-06-01T09:26:13.665Z,1011.39
2018-06-01T09:27:13.670Z,1011.40
2018-06-01T09:28:13.723Z,1011.34
2018-06-01T09:29:13.676Z,1011.33
2018-06-01T09:30:13.679Z,1011.30
2018-06-01T09:31:13.682Z,1011.32
2018-06-01T09:32:13.687Z,1011.33
2018-06-01T09:33:13.691Z,1011.31
2018-06-01T09:34:13.692Z,1011.33
2018-06-01T09:35:13.710Z,1011.33
2018-06-01T09:36:13.698Z,1011.36
2018-06-01T09:37:13.702Z,1011.31
2018-06-01T09:38:13.708Z,1011.35
2018-06-01T09:39:13.708Z,1011.36
2018-06-01T09:40:13.712Z,1011.33
2018-06-01T09:41:13.720Z,1011.31
2018-06-01T09:42:13.718Z,1011.32
2018-06-01T09:43:13.723Z,1011.32
2018-06-01T09:44:13.725Z,1011.33
2018-06-01T09:45:13.733Z,1011.32
2018-06-01T09:46:13.732Z,1011.32
2018-06-01T09:47:13.736Z,1011.36
2018-06-01T09:48:13.743Z,1011.35
2018-06-01T09:49:13.747Z,1011.35
2018-06-01T09:50:13.755Z,1011.34
2018-06-01T09:51:13.750Z,1011.28
2018-06-01T09:52:13.754Z,1011.29
2018-06-01T09:53:13.758Z,1011.28
2018-06-01T09:54:13.766Z,1011.30
2018-06-01T09:55:13.786Z,1011.33
2018-06-01T09:56:13.765Z,1011.30
2018-06-01T09:57:13.769Z,1011.28
2018-06-01T09:58:13.978Z,1011.32
2018-06-01T09:59:13.775Z,1011.28
2018-06-01T10:00:13.795Z,1011.32
2018-06-01T10:01:13.997Z,1011.29
2018-06-01T10:02:13.796Z,1011.27
2018-06-01T10:03:13.788Z,1011.26
2018-06-01T10:04:13.795Z,1011.29
2018-06-01T10:05:13.811Z,1011.27
2018-06-01T10:06:13.813Z,1011.25
2018-06-01T10:07:13.818Z,1011.22
2018-06-01T10:08:13.821Z,1011.22
2018-06-01T10:09:13.823Z,1011.22
2018-06-01T10:10:13.811Z,1011.21
2018-06-01T10:11:13.822Z,1011.20
2018-06-01T10:12:13.825Z,1011.16
2018-06-01T10:13:13.835Z,1011.16
2018-06-01T10:14:13.838Z,1011.16
2018-06-01T10:15:13.844Z,1011.21
2018-06-01T10:16:13.843Z,1011.20
2018-06-01T10:17:13.837Z,1011.22
2018-06-01T10:18:13.838Z,1011.21
2018-06-01T10:19:13.863Z,1011.23
2018-06-01T10:20:13.848Z,1011.21
2018-06-01T10:21:13.851Z,1011.19
2018-06-01T10:22:13.864Z,1011.22
2018-06-01T10:23:13.855Z,1011.24
2018-06-01T10:24:13.870Z,1011.20
2018-06-01T10:25:13.874Z,1011.19
2018-06-01T10:26:13.916Z,1011.20
2018-06-01T10:27:13.875Z,1011.19
2018-06-01T10:28:13.891Z,1011.23
2018-06-01T10:29:13.880Z,1011.18
2018-06-01T10:30:13.912Z,1011.17
2018-06-01T10:31:13.905Z,1011.13
2018-06-01T10:32:13.902Z,1011.18
2018-06-01T10:33:14.098Z,1011.19
2018-06-01T10:34:13.910Z,1011.19
2018-06-01T10:35:13.898Z,1011.19
2018-06-01T10:36:13.925Z,1011.17
2018-06-01T10:37:14.139Z,1011.18
2018-06-01T10:38:13.936Z,1011.15
2018-06-01T10:39:13.940Z,1011.14
2018-06-01T10:40:13.916Z,1011.13
2018-06-01T10:41:13.925Z,1011.13
2018-06-01T10:42:13.950Z,1011.15
2018-06-01T10:43:13.937Z,1011.19
2018-06-01T10:44:13.946Z,1011.18
2018-06-01T10:45:13.958Z,1011.21
2018-06-01T10:46:13.937Z,1011.17
2018-06-01T10:47:13.940Z,1011.23
2018-06-01T10:48:13.969Z,1011.25
2018-06-01T10:49:14.179Z,1011.25
2018-06-01T10:50:13.950Z,1011.30
2018-06-01T10:51:13.972Z,1011.24
2018-06-01T10:52:13.958Z,1011.27
2018-06-01T10:53:13.963Z,1011.23
2018-06-01T10:54:13.965Z,1011.25
2018-06-01T10:55:13.979Z,1011.27
2018-06-01T10:56:13.977Z,1011.25
2018-06-01T10:57:14.180Z,1011.26
2018-06-01T10:58:13.978Z,1011.26
2018-06-01T10:59:13.991Z,1011.27
2018-06-01T11:00:14.002Z,1011.22
2018-06-01T11:01:13.990Z,1011.27
2018-06-01T11:02:14.004Z,1011.27
2018-06-01T11:03:14.022Z,1011.28
2018-06-01T11:04:14.003Z,1011.26
2018-06-01T11:05:14.004Z,1011.27
2018-06-01T11:06:14.007Z,1011.27
2018-06-01T11:07:14.215Z,1011.27
2018-06-01T11:08:14.015Z,1011.28
2018-06-01T11:09:14.021Z,1011.29
2018-06-01T11:10:14.021Z,1011.27
2018-06-01T11:11:14.230Z,1011.26
2018-06-01T11:12:14.030Z,1011.30
2018-06-01T11:13:14.031Z,1011.31
2018-06-01T11:14:14.252Z,1011.35
2018-06-01T11:15:14.038Z,1011.36
2018-06-01T11:16:14.045Z,1011.34
2018-06-01T11:17:14.049Z,1011.31
2018-06-01T11:18:14.254Z,1011.32
2018-06-01T11:19:14.055Z,1011.34
2018-06-01T11:20:14.272Z,1011.33
2018-06-01T11:21:14.081Z,1011.31
2018-06-01T11:22:14.074Z,1011.29
2018-06-01T11:23:14.077Z,1011.27
2018-06-01T11:24:14.276Z,1011.30
2018-06-01T11:25:14.086Z,1011.29
2018-06-01T11:26:14.090Z,1011.28
2018-06-01T11:27:14.080Z,1011.34
2018-06-01T11:28:14.087Z,1011.32
2018-06-01T11:29:14.088Z,1011.32
2018-06-01T11:30:14.103Z,1011.32
2018-06-01T11:31:14.101Z,1011.30
2018-06-01T11:32:14.114Z,1011.34
2018-06-01T11:33:14.112Z,1011.29
2018-06-01T11:34:14.105Z,1011.32
2018-06-01T11:35:14.111Z,1011.29
2018-06-01T11:36:14.127Z,1011.29
2018-06-01T11:37:14.133Z,1011.28
2018-06-01T11:38:14.133Z,1011.29
2018-06-01T11:39:14.339Z,1011.30
2018-06-01T11:40:14.142Z,1011.29
2018-06-01T11:41:14.160Z,1011.29
2018-06-01T11:42:14.362Z,1011.30
2018-06-01T11:43:14.168Z,1011.28
2018-06-01T11:44:14.153Z,1011.29
2018-06-01T11:45:14.159Z,1011.26
2018-06-01T11:46:14.352Z,1011.26
2018-06-01T11:47:14.163Z,1011.26
2018-06-01T11:48:14.167Z,1011.26
2018-06-01T11:49:14.157Z,1011.26
2018-06-01T11:50:14.161Z,1011.25
2018-06-01T11:51:14.165Z,1011.26
2018-06-01T11:52:14.171Z,1011.24
2018-06-01T11:53:14.375Z,1011.24
2018-06-01T11:54:14.378Z,1011.24
2018-06-01T11:55:14.189Z,1011.24
2018-06-01T11:56:14.395Z,1011.23
2018-06-01T11:57:14.187Z,1011.22
2018-06-01T11:58:14.404Z,1011.21
2018-06-01T11:59:14.193Z,1011.20
2018-06-01T12:00:14.228Z,1011.19
2018-06-01T12:01:14.201Z,1011.16
2018-06-01T12:02:14.206Z,1011.21
2018-06-01T12:03:14.275Z,1011.18
2018-06-01T12:04:14.225Z,1011.18
2018-06-01T12:05:14.217Z,1011.18
2018-06-01T12:06:14.230Z,1011.17
2018-06-01T12:07:14.220Z,1011.20
2018-06-01T12:08:14.241Z,1011.22